East Mc Dowell, Kentucky
Current Conditions -  °F | °C
As of 7:55 PM on Wednesday 17 Dec 2014 (Local Time) from KPBX Reporting Station
Clear Clear  
Wind Chill: 25°   Ceiling: Unl
Heat Index: 32°   Visibility: 10mi
Dew Point: 27°   Wind: 7mph
Humidity: 83%   Direction: 300°WNW
Pressure: 30.21"   Gusts: NA
Location:  37.4275°N, 82.7438°W
Report Text: KPBX 180055Z AUTO 30006KT 10SM CLR 00/M03 A3021 RMK AO2 T10021027
Loading
Personal Weather Stations






























Interactive Weather Map New forecast layout! Learn more

10-Day Weather Forecast

Advertisements
Track Severe Weather on mobile